Time;durP1;ratioP1;P1;durP2;ratioP2;P2;SDS_P1;SDS_P2;PMS_P1;PMS_P2;Temp;Humidity;BMP_temperature;BMP_pressure;BME280_temperature;BME280_humidity;BME280_pressure;Samples;Min_cycle;Max_cycle;Signal;HPM_P1;HPM_P2
2023/01/17 00:01:14;;;;;;;5.43;2.63;;;;;;;1.48;100.00;97463.03;5035056;28;20116;-73
2023/01/17 00:11:56;;;;;;;4.47;2.15;;;;;;;1.46;100.00;97487.31;5066410;28;20278;-76
2023/01/17 00:14:22;;;;;;;4.80;2.40;;;;;;;1.41;100.00;97476.44;5035969;28;20029;-72
2023/01/17 00:16:47;;;;;;;3.65;2.17;;;;;;;1.39;100.00;97488.59;5052345;28;20091;-71
2023/01/17 01:34:15;;;;;;;7.13;4.38;;;;;;;0.97;100.00;97588.47;5052239;28;20091;-71
2023/01/17 01:36:40;;;;;;;9.27;4.20;;;;;;;1.01;100.00;97596.88;5051940;28;20029;-70
2023/01/17 01:39:07;;;;;;;10.20;5.82;;;;;;;1.06;100.00;97609.53;5051103;28;20387;-70
2023/01/17 01:41:32;;;;;;;6.60;4.93;;;;;;;1.06;100.00;97625.03;5051410;28;20372;-70
2023/01/17 01:43:58;;;;;;;7.53;4.32;;;;;;;1.05;100.00;97613.88;5033986;28;20045;-70
2023/01/17 01:46:28;;;;;;;8.60;4.70;;;;;;;1.06;100.00;97614.69;5051819;28;20103;-70
2023/01/17 01:49:00;;;;;;;12.00;6.10;;;;;;;1.06;100.00;97619.88;5031769;28;20087;-69
2023/01/17 01:51:29;;;;;;;13.88;5.97;;;;;;;0.92;100.00;97594.81;5029782;28;20033;-69
2023/01/17 01:54:02;;;;;;;17.60;6.13;;;;;;;1.03;100.00;97611.38;5033422;28;20041;-69
2023/01/17 01:56:28;;;;;;;14.35;6.40;;;;;;;0.97;100.00;97611.72;5052008;28;20514;-69
2023/01/17 01:58:54;;;;;;;10.90;6.10;;;;;;;1.12;100.00;97640.19;5033357;28;20100;-69
2023/01/17 02:01:19;;;;;;;12.80;6.35;;;;;;;1.10;100.00;97637.72;5051605;28;20105;-70
2023/01/17 02:03:45;;;;;;;10.90;5.57;;;;;;;1.07;100.00;97631.88;5033725;28;20068;-71
2023/01/17 02:06:28;;;;;;;11.27;6.18;;;;;;;1.18;100.00;97650.22;5033750;28;20390;-71
2023/01/17 02:08:58;;;;;;;11.40;6.13;;;;;;;1.17;100.00;97654.56;5035065;28;20036;-70
2023/01/17 02:11:23;;;;;;;15.00;6.80;;;;;;;1.16;100.00;97649.44;5037218;28;20467;-71
2023/01/17 02:13:49;;;;;;;12.40;6.78;;;;;;;1.10;100.00;97657.56;5047686;28;20104;-71
2023/01/17 02:16:23;;;;;;;21.10;7.47;;;;;;;1.18;100.00;97660.56;5053072;28;20060;-71
2023/01/17 02:19:26;;;;;;;12.77;7.30;;;;;;;1.16;100.00;97662.38;5055339;28;20075;-69
2023/01/17 02:22:00;;;;;;;16.80;7.63;;;;;;;1.13;100.00;97672.91;5057039;28;20020;-70
2023/01/17 02:24:41;;;;;;;9.30;6.90;;;;;;;1.09;100.00;97666.22;5037235;28;20545;-69
2023/01/17 02:27:13;;;;;;;13.95;8.25;;;;;;;1.02;100.00;97661.41;5054842;28;20032;-69
2023/01/17 02:29:48;;;;;;;13.00;7.80;;;;;;;0.84;100.00;97640.94;5055250;28;20112;-70
2023/01/17 02:32:34;;;;;;;16.92;8.38;;;;;;;1.06;100.00;97681.91;5054795;28;20094;-70
2023/01/17 02:35:06;;;;;;;14.90;8.18;;;;;;;1.01;100.00;97685.56;5055155;28;20091;-69
2023/01/17 02:37:43;;;;;;;10.32;7.60;;;;;;;0.97;100.00;97689.28;5063536;28;20447;-69
2023/01/17 02:40:31;;;;;;;11.43;8.05;;;;;;;0.95;100.00;97688.50;5055372;28;20463;-69
2023/01/17 02:43:01;;;;;;;18.65;8.07;;;;;;;0.83;100.00;97685.78;5041406;28;20082;-69
2023/01/17 02:45:27;;;;;;;15.15;7.85;;;;;;;0.79;100.00;97695.44;5037238;28;20028;-69
2023/01/17 02:47:52;;;;;;;16.90;7.80;;;;;;;0.77;100.00;97692.13;5036830;28;20025;-70
2023/01/17 02:50:20;;;;;;;11.05;8.00;;;;;;;0.30;100.00;97630.13;5054572;28;20375;-69
2023/01/17 02:53:00;;;;;;;12.88;8.27;;;;;;;0.78;100.00;97706.69;5036862;28;20494;-69
2023/01/17 02:55:58;;;;;;;13.70;8.18;;;;;;;0.76;100.00;97708.53;5054481;28;20033;-70
2023/01/17 02:58:46;;;;;;;16.77;8.10;;;;;;;0.72;100.00;97707.03;5000156;28;20050;-69
2023/01/17 03:01:43;;;;;;;14.27;8.10;;;;;;;0.68;100.00;97708.09;5030771;28;20037;-70
2023/01/17 03:04:15;;;;;;;11.27;8.13;;;;;;;0.61;100.00;97688.69;5025686;28;20041;-69
2023/01/17 03:06:53;;;;;;;12.35;7.22;;;;;;;0.59;100.00;97703.44;5036317;28;20479;-69
2023/01/17 03:09:19;;;;;;;12.77;8.27;;;;;;;0.48;100.00;97698.00;5036849;28;20029;-70
2023/01/17 03:11:44;;;;;;;15.77;8.80;;;;;;;0.32;100.00;97684.25;5036185;28;20039;-70
2023/01/17 03:14:09;;;;;;;12.38;8.25;;;;;;;0.36;100.00;97709.84;5036492;28;20024;-69
2023/01/17 03:16:35;;;;;;;13.90;7.85;;;;;;;0.29;100.00;97711.06;5035901;28;20032;-69
2023/01/17 03:19:00;;;;;;;12.85;7.63;;;;;;;0.12;100.00;97689.63;5053651;28;20029;-68
2023/01/17 03:21:26;;;;;;;11.27;7.53;;;;;;;0.13;100.00;97699.03;5034321;28;20104;-69
2023/01/17 03:23:51;;;;;;;17.90;9.10;;;;;;;0.11;100.00;97700.84;5054236;28;20047;-69
2023/01/17 03:26:17;;;;;;;22.27;8.82;;;;;;;-0.35;100.00;97643.88;5050446;28;20055;-69
2023/01/17 03:28:42;;;;;;;16.73;9.57;;;;;;;0.02;100.00;97706.50;5054035;28;20078;-69
2023/01/17 03:31:08;;;;;;;20.00;9.63;;;;;;;-0.02;100.00;97705.81;5053222;28;20033;-69
2023/01/17 03:33:34;;;;;;;16.92;10.65;;;;;;;-0.09;100.00;97702.72;5053672;28;20037;-69
2023/01/17 03:35:59;;;;;;;17.75;10.00;;;;;;;-0.13;100.00;97692.63;5048593;28;20521;-69
2023/01/17 03:38:26;;;;;;;14.95;10.10;;;;;;;-0.05;100.00;97709.38;5069068;28;20025;-69
2023/01/17 03:40:51;;;;;;;17.48;10.82;;;;;;;-0.01;100.00;97710.91;5053593;28;20104;-70
2023/01/17 03:43:17;;;;;;;19.38;10.30;;;;;;;-0.02;100.00;97701.47;5035040;28;20040;-69
2023/01/17 03:45:42;;;;;;;15.95;10.43;;;;;;;0.01;100.00;97700.47;5053836;28;20029;-70
2023/01/17 03:48:07;;;;;;;16.83;11.18;;;;;;;0.10;100.00;97714.69;5053610;28;20099;-70
2023/01/17 03:50:33;;;;;;;15.20;10.45;;;;;;;0.06;100.00;97697.69;5041375;28;20396;-70
2023/01/17 03:52:58;;;;;;;15.95;9.77;;;;;;;0.11;100.00;97700.84;5035653;28;20108;-70
2023/01/17 03:55:24;;;;;;;16.13;10.70;;;;;;;0.12;100.00;97700.78;5053662;28;20060;-69
2023/01/17 03:57:49;;;;;;;15.68;9.93;;;;;;;0.12;100.00;97698.19;5053675;28;20025;-69
2023/01/17 04:00:15;;;;;;;18.88;10.95;;;;;;;0.13;100.00;97709.34;5053108;28;20040;-69
2023/01/17 04:02:41;;;;;;;18.60;11.45;;;;;;;0.07;100.00;97700.16;5053299;28;20399;-69
2023/01/17 04:05:06;;;;;;;22.95;11.15;;;;;;;0.12;100.00;97702.53;5051272;28;20025;-70
2023/01/17 04:07:32;;;;;;;21.10;11.88;;;;;;;0.04;100.00;97690.00;5053081;28;20031;-69
2023/01/17 04:09:57;;;;;;;23.05;12.30;;;;;;;0.00;100.00;97689.31;5053297;28;20083;-68
2023/01/17 04:12:23;;;;;;;22.63;11.27;;;;;;;0.00;100.00;97697.06;5053118;28;20028;-69
2023/01/17 04:14:48;;;;;;;27.48;12.05;;;;;;;-0.04;100.00;97693.00;5052951;28;20492;-69
2023/01/17 04:17:15;;;;;;;19.00;12.00;;;;;;;0.02;100.00;97703.91;5035312;28;20122;-69
2023/01/17 04:19:41;;;;;;;14.98;10.95;;;;;;;-0.02;100.00;97709.22;5052754;28;20020;-69
2023/01/17 04:22:06;;;;;;;25.17;13.05;;;;;;;-0.03;100.00;97707.56;5053042;28;20384;-69
2023/01/17 04:24:32;;;;;;;27.60;13.02;;;;;;;-0.04;100.00;97703.31;5035199;28;20036;-69
2023/01/17 04:26:57;;;;;;;21.42;13.68;;;;;;;-0.12;100.00;97689.13;5051892;28;20067;-69
2023/01/17 04:29:23;;;;;;;20.35;13.77;;;;;;;-0.10;100.00;97690.72;5049575;28;20041;-69
2023/01/17 04:31:48;;;;;;;18.25;13.02;;;;;;;0.01;100.00;97708.22;5052807;28;20029;-69
2023/01/17 04:34:14;;;;;;;19.92;12.38;;;;;;;-0.06;100.00;97688.81;5052880;28;20110;-69
2023/01/17 04:36:39;;;;;;;19.58;13.13;;;;;;;-0.09;100.00;97683.81;5034477;28;20025;-69
2023/01/17 04:39:05;;;;;;;19.92;13.65;;;;;;;-0.16;100.00;97682.44;5040689;28;20025;-69
2023/01/17 04:41:30;;;;;;;27.10;13.85;;;;;;;-0.16;100.00;97688.44;5052477;28;20033;-69
2023/01/17 04:43:56;;;;;;;25.30;14.05;;;;;;;-0.21;100.00;97695.59;5048717;28;20032;-69
2023/01/17 04:46:21;;;;;;;21.67;14.57;;;;;;;-0.26;100.00;97686.41;5034745;28;20084;-69
2023/01/17 04:48:46;;;;;;;20.17;13.40;;;;;;;-0.30;100.00;97693.47;5052386;28;20036;-69
2023/01/17 04:51:12;;;;;;;20.00;13.75;;;;;;;-0.30;100.00;97700.38;5052330;28;20028;-69
2023/01/17 04:53:37;;;;;;;24.38;14.52;;;;;;;-0.42;100.00;97676.03;5034977;28;20036;-69
2023/01/17 04:56:03;;;;;;;21.02;14.48;;;;;;;-0.47;100.00;97667.69;5051753;28;20096;-69
2023/01/17 04:58:29;;;;;;;20.38;13.90;;;;;;;-0.47;100.00;97667.69;5017975;28;20033;-69
2023/01/17 05:00:54;;;;;;;21.73;14.77;;;;;;;-0.33;100.00;97691.03;5019167;28;20112;-69
2023/01/17 05:03:21;;;;;;;22.77;14.73;;;;;;;-0.34;100.00;97694.56;5052256;28;20410;-69
2023/01/17 05:05:47;;;;;;;23.05;14.55;;;;;;;-0.49;100.00;97674.69;5034620;28;20032;-69
2023/01/17 05:08:13;;;;;;;20.70;13.18;;;;;;;-0.28;100.00;97712.28;5052040;28;20123;-69
2023/01/17 05:10:38;;;;;;;25.33;14.13;;;;;;;-0.29;100.00;97710.63;5067699;28;20032;-69
2023/01/17 05:13:04;;;;;;;24.33;14.32;;;;;;;-0.36;100.00;97698.94;5052095;28;20029;-69
2023/01/17 05:15:30;;;;;;;20.92;14.75;;;;;;;-0.32;100.00;97708.19;5034544;28;20037;-69
2023/01/17 05:17:55;;;;;;;20.00;13.90;;;;;;;-0.44;100.00;97684.78;5052130;28;20064;-69
2023/01/17 05:20:22;;;;;;;21.73;13.50;;;;;;;-0.36;100.00;97705.84;5052253;28;20124;-69
2023/01/17 05:22:55;;;;;;;18.60;13.30;;;;;;;-0.45;100.00;97701.97;5051793;28;20017;-69
2023/01/17 05:25:25;;;;;;;20.25;12.73;;;;;;;-0.44;100.00;97706.22;5051868;28;20032;-68
2023/01/17 05:27:51;;;;;;;24.98;14.07;;;;;;;-0.56;100.00;97692.19;5049053;28;20029;-69
2023/01/17 05:30:17;;;;;;;22.45;14.23;;;;;;;-0.57;100.00;97703.41;5034558;28;20087;-69
2023/01/17 05:32:51;;;;;;;23.38;13.70;;;;;;;-0.60;100.00;97695.00;5033040;28;20021;-70
2023/01/17 05:35:18;;;;;;;22.83;14.05;;;;;;;-0.58;100.00;97700.91;5051949;28;20498;-68
2023/01/17 05:37:47;;;;;;;23.73;14.65;;;;;;;-0.63;100.00;97702.88;5050996;28;20468;-69
2023/01/17 05:40:24;;;;;;;25.95;13.68;;;;;;;-0.57;100.00;97712.88;5051892;28;20017;-68
2023/01/17 05:42:51;;;;;;;19.95;13.82;;;;;;;-0.62;100.00;97713.13;5033736;28;20472;-69
2023/01/17 05:45:21;;;;;;;22.58;14.38;;;;;;;-0.66;100.00;97715.91;5055675;28;20078;-69
2023/01/17 05:47:49;;;;;;;25.30;14.00;;;;;;;-0.75;100.00;97717.22;5055604;28;20027;-69
2023/01/17 05:50:17;;;;;;;27.75;14.93;;;;;;;-0.86;100.00;97705.72;5055928;28;20036;-69
2023/01/17 05:52:54;;;;;;;21.08;13.73;;;;;;;-0.83;100.00;97721.03;5021612;28;20480;-69
2023/01/17 05:55:20;;;;;;;22.65;13.93;;;;;;;-0.88;100.00;97712.72;5032587;28;20036;-69
2023/01/17 05:57:46;;;;;;;19.90;15.50;;;;;;;-0.87;100.00;97729.81;5055666;28;20490;-68
2023/01/17 06:00:12;;;;;;;24.70;15.80;;;;;;;-0.94;100.00;97711.25;5037377;28;20148;-68
2023/01/17 06:02:38;;;;;;;31.00;17.63;;;;;;;-0.93;100.00;97724.97;5061821;28;20032;-68
2023/01/17 06:05:04;;;;;;;28.95;16.80;;;;;;;-1.04;100.00;97710.84;5059847;28;20029;-68
2023/01/17 06:07:29;;;;;;;36.72;18.33;;;;;;;-1.02;100.00;97715.09;5037695;28;20029;-68
2023/01/17 06:09:54;;;;;;;36.28;21.13;;;;;;;-1.07;100.00;97717.88;5055545;28;20029;-68
2023/01/17 06:12:20;;;;;;;28.42;16.92;;;;;;;-1.12;100.00;97725.84;5028508;28;20032;-69
2023/01/17 06:14:45;;;;;;;49.00;27.98;;;;;;;-1.16;100.00;97708.03;5047580;28;20104;-69
2023/01/17 06:17:11;;;;;;;44.63;26.45;;;;;;;-1.13;100.00;97713.88;5054835;28;20035;-68
2023/01/17 06:19:36;;;;;;;39.97;22.80;;;;;;;-1.11;100.00;97732.66;5059269;28;20037;-68
2023/01/17 06:22:03;;;;;;;42.97;24.63;;;;;;;-1.17;100.00;97722.63;5037349;28;20164;-68
2023/01/17 06:24:32;;;;;;;28.67;17.02;;;;;;;-1.24;100.00;97731.53;5055295;28;20036;-69
2023/01/17 06:26:57;;;;;;;27.98;15.70;;;;;;;-1.29;100.00;97733.50;5042967;28;20025;-69
2023/01/17 06:29:22;;;;;;;22.55;14.95;;;;;;;-1.36;100.00;97726.97;5035207;28;20036;-69
2023/01/17 06:31:48;;;;;;;24.77;16.38;;;;;;;-1.37;100.00;97724.44;5054276;28;20601;-69
2023/01/17 06:34:13;;;;;;;26.63;17.55;;;;;;;-1.27;100.00;97725.69;5055059;28;20025;-69
2023/01/17 06:36:39;;;;;;;26.70;17.33;;;;;;;-1.38;100.00;97703.00;5054208;28;20029;-69
2023/01/17 06:39:04;;;;;;;40.83;22.42;;;;;;;-1.38;100.00;97708.16;5054501;28;20059;-69
2023/01/17 06:41:30;;;;;;;34.40;22.20;;;;;;;-1.33;100.00;97716.53;5050231;28;20024;-69
2023/01/17 06:43:55;;;;;;;38.13;23.95;;;;;;;-1.32;100.00;97731.06;5054577;28;20167;-69
2023/01/17 06:46:21;;;;;;;25.98;18.08;;;;;;;-1.36;100.00;97724.41;5054748;28;20124;-69
2023/01/17 06:48:47;;;;;;;27.67;17.30;;;;;;;-1.43;100.00;97720.44;5054936;28;20375;-69
2023/01/17 06:51:13;;;;;;;32.05;16.65;;;;;;;-1.43;100.00;97730.72;5054156;28;20108;-69
2023/01/17 06:53:39;;;;;;;23.67;17.83;;;;;;;-1.49;100.00;97715.56;5036499;28;20028;-69
2023/01/17 06:56:05;;;;;;;25.67;15.48;;;;;;;-1.41;100.00;97738.38;5053432;28;20383;-69
2023/01/17 06:58:30;;;;;;;22.55;14.95;;;;;;;-1.45;100.00;97722.22;5054292;28;20364;-69
2023/01/17 07:00:56;;;;;;;26.50;14.68;;;;;;;-1.35;100.00;97726.03;5053745;28;20032;-69
2023/01/17 07:03:23;;;;;;;21.17;14.15;;;;;;;-1.38;100.00;97720.19;5054487;28;20029;-69
2023/01/17 07:05:49;;;;;;;23.00;13.85;;;;;;;-1.36;100.00;97720.97;5054482;28;20025;-69
2023/01/17 07:08:16;;;;;;;28.20;14.23;;;;;;;-1.43;100.00;97711.88;5054247;28;20036;-69
2023/01/17 07:10:45;;;;;;;23.63;14.68;;;;;;;-1.43;100.00;97715.28;5036163;28;20035;-68
2023/01/17 07:13:11;;;;;;;24.63;14.27;;;;;;;-1.57;100.00;97710.75;5053279;28;20032;-68
2023/01/17 07:15:36;;;;;;;37.50;13.88;;;;;;;-1.40;100.00;97725.44;5053180;28;20484;-69
2023/01/17 07:18:03;;;;;;;25.63;12.73;;;;;;;-1.36;100.00;97726.13;5053422;28;20021;-69
2023/01/17 07:20:29;;;;;;;20.70;13.00;;;;;;;-1.41;100.00;97733.22;5035771;28;20119;-70
2023/01/17 07:22:54;;;;;;;21.77;13.32;;;;;;;-1.43;100.00;97729.88;5053038;28;20037;-70
2023/01/17 07:25:20;;;;;;;22.40;13.10;;;;;;;-1.54;100.00;97702.06;5053297;28;20036;-70
2023/01/17 07:27:45;;;;;;;17.45;11.10;;;;;;;-1.53;100.00;97708.88;5053685;28;20051;-70
2023/01/17 07:30:12;;;;;;;21.65;12.73;;;;;;;-1.79;100.00;97671.41;5052974;28;20388;-70
2023/01/17 07:32:38;;;;;;;20.10;11.27;;;;;;;-1.45;100.00;97716.25;5053987;28;20036;-69
2023/01/17 07:35:04;;;;;;;22.40;11.73;;;;;;;-1.95;100.00;97631.84;5036227;28;20024;-70
2023/01/17 07:37:30;;;;;;;18.88;12.02;;;;;;;-1.46;100.00;97725.72;5050346;28;20029;-69
2023/01/17 07:39:55;;;;;;;23.10;11.02;;;;;;;-1.52;100.00;97731.13;5053856;28;20376;-69
2023/01/17 07:42:21;;;;;;;23.00;11.73;;;;;;;-1.78;100.00;97709.13;5052889;28;20116;-69
2023/01/17 07:44:46;;;;;;;18.35;11.38;;;;;;;-1.67;100.00;97736.97;5053583;28;20035;-69
2023/01/17 07:47:12;;;;;;;27.13;13.43;;;;;;;-1.71;100.00;97725.13;5035337;28;20452;-70
2023/01/17 07:49:37;;;;;;;19.92;12.55;;;;;;;-1.86;100.00;97700.91;5053938;28;20042;-70
2023/01/17 07:52:05;;;;;;;18.48;10.98;;;;;;;-1.93;100.00;97698.69;5035258;28;20025;-70
2023/01/17 07:54:31;;;;;;;20.00;12.25;;;;;;;-1.76;100.00;97721.94;5053486;28;20093;-70
2023/01/17 07:56:56;;;;;;;26.08;13.15;;;;;;;-1.93;100.00;97719.25;5053402;28;20151;-70
2023/01/17 07:59:21;;;;;;;20.67;12.98;;;;;;;-2.08;100.00;97703.59;5053510;28;20036;-70
2023/01/17 08:01:47;;;;;;;31.13;12.60;;;;;;;-1.91;100.00;97740.59;5052858;28;20122;-70
2023/01/17 08:04:12;;;;;;;21.48;13.10;;;;;;;-1.92;100.00;97741.50;5053384;28;20460;-70
2023/01/17 08:06:41;;;;;;;24.40;13.68;;;;;;;-1.97;100.00;97733.16;5053110;28;20036;-70
2023/01/17 08:09:06;;;;;;;23.05;14.60;;;;;;;-1.98;100.00;97732.31;5035405;28;20036;-70
2023/01/17 08:11:32;;;;;;;25.60;14.20;;;;;;;-1.87;100.00;97739.56;5053043;28;20029;-70
2023/01/17 08:13:58;;;;;;;26.65;15.73;;;;;;;-1.81;100.00;97734.16;5047508;28;20128;-70
2023/01/17 08:16:24;;;;;;;27.48;15.35;;;;;;;-1.76;100.00;97747.66;5052675;28;20064;-70
2023/01/17 08:18:50;;;;;;;26.50;15.95;;;;;;;-1.76;100.00;97742.53;5035607;28;20049;-70
2023/01/17 08:21:16;;;;;;;30.40;16.48;;;;;;;-1.73;100.00;97750.09;5052658;28;20127;-70
2023/01/17 08:23:42;;;;;;;24.35;16.40;;;;;;;-1.77;100.00;97746.00;5052715;28;20057;-70
2023/01/17 08:26:08;;;;;;;27.98;15.40;;;;;;;-1.72;100.00;97736.31;5035102;28;20540;-70
2023/01/17 08:28:33;;;;;;;25.90;16.10;;;;;;;-1.75;100.00;97736.44;5052997;28;20052;-70
2023/01/17 08:31:07;;;;;;;26.15;16.13;;;;;;;-1.68;100.00;97756.72;5035242;28;20072;-70
2023/01/17 08:33:32;;;;;;;31.58;18.02;;;;;;;-1.65;100.00;97763.47;5053168;28;20037;-70
2023/01/17 08:35:58;;;;;;;31.95;17.63;;;;;;;-1.63;100.00;97749.63;5052486;28;20483;-70
2023/01/17 08:38:24;;;;;;;28.08;17.48;;;;;;;-1.59;100.00;97752.91;5052924;28;20207;-70
2023/01/17 08:40:49;;;;;;;29.75;17.52;;;;;;;-1.50;100.00;97769.69;5053060;28;20025;-70
2023/01/17 08:43:15;;;;;;;30.40;18.50;;;;;;;-1.44;100.00;97765.09;5052418;28;20048;-70
2023/01/17 08:45:44;;;;;;;23.00;16.67;;;;;;;-1.40;100.00;97766.63;5051884;28;20029;-70
2023/01/17 08:48:10;;;;;;;27.55;17.77;;;;;;;-1.35;100.00;97763.84;5049392;28;20033;-70
2023/01/17 08:50:35;;;;;;;26.83;16.40;;;;;;;-1.30;100.00;97761.91;5052347;28;20549;-70
2023/01/17 08:53:01;;;;;;;34.55;17.10;;;;;;;-1.35;100.00;97748.41;5035073;28;20021;-70
2023/01/17 08:55:27;;;;;;;21.63;15.98;;;;;;;-1.69;100.00;97679.59;5049947;28;20534;-70
2023/01/17 08:57:52;;;;;;;32.25;18.27;;;;;;;-1.18;100.00;97753.59;5034529;28;20202;-70
2023/01/17 09:00:18;;;;;;;27.70;17.02;;;;;;;-1.10;100.00;97754.09;5051915;28;20379;-70
2023/01/17 09:02:44;;;;;;;29.40;17.30;;;;;;;-1.02;100.00;97766.63;5052734;28;20584;-70
2023/01/17 09:05:10;;;;;;;26.85;17.00;;;;;;;-1.05;100.00;97765.03;5051650;28;20036;-70
2023/01/17 09:07:36;;;;;;;22.42;16.33;;;;;;;-0.96;100.00;97777.47;5052689;28;20057;-70
2023/01/17 09:10:01;;;;;;;26.00;16.73;;;;;;;-0.97;100.00;97765.50;5051999;28;20454;-70
2023/01/17 09:12:30;;;;;;;25.52;15.57;;;;;;;-0.91;100.00;97772.94;5052684;28;20025;-70
2023/01/17 09:14:56;;;;;;;25.48;16.98;;;;;;;-0.92;100.00;97767.88;5015327;28;20025;-70
2023/01/17 09:17:21;;;;;;;26.45;14.43;;;;;;;-0.84;100.00;97770.91;5044529;28;20033;-70
2023/01/17 09:19:47;;;;;;;27.85;16.45;;;;;;;-0.84;100.00;97765.75;5049191;28;20029;-70
2023/01/17 09:22:13;;;;;;;26.85;16.40;;;;;;;-0.84;100.00;97765.75;5051589;28;20376;-70
2023/01/17 09:24:38;;;;;;;21.80;16.35;;;;;;;-0.84;100.00;97769.16;5034666;28;20112;-70
2023/01/17 09:27:04;;;;;;;22.30;14.77;;;;;;;-0.78;100.00;97776.63;5034294;28;20483;-70
2023/01/17 09:29:29;;;;;;;23.52;15.23;;;;;;;-0.80;100.00;97769.88;5034830;28;20594;-70
2023/01/17 09:31:55;;;;;;;26.23;16.02;;;;;;;-0.81;100.00;97755.34;5051734;28;20072;-70
2023/01/17 09:34:22;;;;;;;32.33;15.13;;;;;;;-0.72;100.00;97767.78;5049405;28;20087;-70
2023/01/17 09:36:47;;;;;;;25.30;16.20;;;;;;;-0.91;100.00;97734.28;5067186;28;20028;-70
2023/01/17 09:39:14;;;;;;;28.75;14.45;;;;;;;-0.70;100.00;97765.94;5052528;28;20025;-70
2023/01/17 09:41:59;;;;;;;29.65;14.68;;;;;;;-0.62;100.00;97779.31;5051042;28;20487;-70
2023/01/17 09:44:28;;;;;;;24.48;15.55;;;;;;;-0.78;100.00;97760.34;5025199;28;20043;-70
2023/01/17 09:46:57;;;;;;;22.83;15.70;;;;;;;-0.51;100.00;97784.81;5022389;28;20029;-70
2023/01/17 09:49:36;;;;;;;28.25;15.40;;;;;;;-0.40;100.00;97787.69;5050734;28;20028;-70
2023/01/17 09:52:02;;;;;;;29.17;14.93;;;;;;;-0.35;100.00;97788.31;5045298;28;20286;-70
2023/01/17 09:54:33;;;;;;;31.42;13.75;;;;;;;-0.34;100.00;97787.41;5039744;28;20033;-69
2023/01/17 09:57:02;;;;;;;26.70;13.50;;;;;;;-0.30;100.00;97794.06;5015368;28;20451;-69
2023/01/17 09:59:33;;;;;;;24.45;14.07;;;;;;;-0.24;100.00;97793.78;5052062;28;20028;-69
2023/01/17 10:02:19;;;;;;;24.75;12.40;;;;;;;-0.19;100.00;97791.81;5051548;28;20040;-69
2023/01/17 10:04:51;;;;;;;23.40;14.38;;;;;;;-0.13;100.00;97800.97;5052211;28;20033;-70
2023/01/17 10:07:54;;;;;;;24.60;13.20;;;;;;;-0.08;100.00;97802.44;5050733;28;20056;-70
2023/01/17 10:10:42;;;;;;;22.38;12.95;;;;;;;-0.03;100.00;97797.03;5029366;28;20036;-70
2023/01/17 10:13:46;;;;;;;23.08;11.77;;;;;;;0.05;100.00;97799.25;5033885;28;20120;-69
2023/01/17 10:16:27;;;;;;;25.70;13.33;;;;;;;0.09;100.00;97798.19;5033496;28;20391;-70
2023/01/17 10:19:13;;;;;;;17.90;12.02;;;;;;;0.13;100.00;97802.28;5051778;28;20029;-70
2023/01/17 10:22:01;;;;;;;20.08;11.77;;;;;;;0.27;100.00;97802.44;5033534;28;20032;-69
2023/01/17 10:24:26;;;;;;;18.60;10.80;;;;;;;0.35;100.00;97808.84;5034026;28;20032;-69
2023/01/17 10:26:55;;;;;;;22.48;10.35;;;;;;;0.43;100.00;97795.56;5021803;28;20986;-69
2023/01/17 10:29:21;;;;;;;25.20;10.82;;;;;;;0.41;100.00;97784.47;5052079;28;20021;-70
2023/01/17 10:31:53;;;;;;;13.93;9.23;;;;;;;0.50;100.00;97791.75;5037280;28;20024;-69
2023/01/17 10:34:22;;;;;;;17.10;10.00;;;;;;;0.31;100.00;97750.53;5021307;28;20825;-69
2023/01/17 10:36:52;;;;;;;15.60;9.18;;;;;;;0.67;100.00;97796.88;4987155;28;20025;-69
2023/01/17 10:39:25;;;;;;;18.67;10.20;;;;;;;0.76;100.00;97787.78;4990103;28;20135;-70
2023/01/17 10:41:54;;;;;;;22.60;10.95;;;;;;;0.73;100.00;97786.22;4995730;28;20132;-69
2023/01/17 10:44:34;;;;;;;17.10;9.32;;;;;;;0.84;100.00;97791.66;4991214;28;20029;-69
2023/01/17 10:47:13;;;;;;;20.50;10.48;;;;;;;0.87;100.00;97791.50;5008833;28;20071;-69
2023/01/17 10:49:45;;;;;;;16.13;9.48;;;;;;;0.96;100.00;97790.16;4974510;28;20035;-69
2023/01/17 10:52:18;;;;;;;16.95;10.10;;;;;;;1.00;100.00;97789.91;5009154;28;20046;-70
2023/01/17 10:54:52;;;;;;;20.83;9.27;;;;;;;0.95;100.00;97771.22;4968806;28;20147;-69
2023/01/17 10:57:24;;;;;;;;;;;;;;;1.11;100.00;97780.75;5001993;28;20033;-69
2023/01/17 10:59:50;;;;;;;13.90;8.60;;;;;;;1.17;100.00;97777.81;4992688;28;19913;-69
2023/01/17 11:02:23;;;;;;;20.60;8.52;;;;;;;1.03;100.00;97750.13;4990442;28;20025;-70
2023/01/17 11:04:53;;;;;;;12.90;8.30;;;;;;;1.17;100.00;97767.47;5010996;28;20894;-69
2023/01/17 11:07:22;;;;;;;17.65;8.27;;;;;;;1.25;100.00;97776.47;4993357;28;20558;-69
2023/01/17 11:09:50;;;;;;;17.23;7.75;;;;;;;1.33;100.00;97766.53;4991380;28;20180;-70
2023/01/17 11:12:39;;;;;;;16.60;7.45;;;;;;;1.34;100.00;97760.47;5007000;28;20868;-70
2023/01/17 11:15:18;;;;;;;16.33;8.02;;;;;;;1.32;100.00;97754.53;4979247;28;20059;-70
2023/01/17 11:17:45;;;;;;;14.38;7.10;;;;;;;1.37;100.00;97769.81;5024840;28;20302;-70
2023/01/17 11:20:31;;;;;;;14.98;6.97;;;;;;;1.40;100.00;97764.44;4992217;28;20033;-70
2023/01/17 11:23:17;;;;;;;12.07;7.40;;;;;;;1.38;100.00;97755.97;5007781;28;20029;-70
2023/01/17 11:25:56;;;;;;;10.60;7.18;;;;;;;1.52;100.00;97768.97;4990028;28;20036;-70
2023/01/17 11:28:25;;;;;;;15.20;6.97;;;;;;;1.55;100.00;97766.19;4984139;28;20032;-70
2023/01/17 11:30:55;;;;;;;11.40;7.00;;;;;;;1.59;100.00;97759.91;5002355;28;20033;-70
2023/01/17 11:33:28;;;;;;;18.33;7.13;;;;;;;1.70;100.00;97767.91;5000408;28;20040;-70
2023/01/17 11:35:54;;;;;;;13.38;6.05;;;;;;;1.71;100.00;97763.56;5022959;28;20039;-70
2023/01/17 11:38:21;;;;;;;14.65;6.05;;;;;;;1.79;100.00;97771.75;5008659;28;20025;-70
2023/01/17 11:40:48;;;;;;;9.43;5.88;;;;;;;1.75;100.00;97760.72;4990354;28;20127;-70
2023/01/17 11:43:20;;;;;;;14.27;6.60;;;;;;;1.17;100.00;97669.22;5023837;28;20024;-70
2023/01/17 11:46:00;;;;;;;12.75;6.55;;;;;;;1.83;100.00;97762.84;5008953;28;20044;-70
2023/01/17 11:48:25;;;;;;;14.40;7.82;;;;;;;1.92;100.00;97773.53;5007862;28;20238;-70
2023/01/17 11:50:58;;;;;;;16.83;6.07;;;;;;;1.89;100.00;97760.75;4983765;28;20877;-70
2023/01/17 11:53:27;;;;;;;14.77;7.80;;;;;;;1.82;100.00;97745.66;4997076;28;20029;-70
2023/01/17 11:55:55;;;;;;;13.32;6.95;;;;;;;2.03;100.00;97765.97;4990554;28;20266;-70
2023/01/17 11:58:22;;;;;;;12.23;6.00;;;;;;;2.28;100.00;97764.53;5009063;28;20993;-69
2023/01/17 12:01:21;;;;;;;12.80;5.05;;;;;;;2.45;100.00;97762.59;5008154;28;20029;-71
2023/01/17 12:04:01;;;;;;;6.95;4.07;;;;;;;2.45;100.00;97754.00;4964745;28;20048;-70
2023/01/17 12:07:04;;;;;;;14.40;5.60;;;;;;;2.36;100.00;97757.97;5020094;28;20929;-70
2023/01/17 12:09:34;;;;;;;12.73;5.35;;;;;;;2.31;100.00;97748.78;5002182;28;20031;-70
2023/01/17 12:14:56;;;;;;;12.10;4.68;;;;;;;2.21;100.00;97745.09;5008468;28;20083;-70
2023/01/17 12:17:35;;;;;;;11.13;4.70;;;;;;;2.26;100.00;97745.66;5001483;28;20792;-70
2023/01/17 12:20:04;;;;;;;11.57;5.03;;;;;;;2.27;100.00;97735.19;5002509;28;20029;-70
2023/01/17 12:23:00;;;;;;;9.88;5.15;;;;;;;2.27;100.00;97726.59;4989169;28;20039;-70
2023/01/17 12:25:28;;;;;;;15.38;4.75;;;;;;;2.38;100.00;97744.91;4991060;28;20941;-70
2023/01/17 12:28:36;;;;;;;8.15;4.72;;;;;;;2.44;100.00;97735.00;5007338;28;20031;-70
2023/01/17 12:31:19;;;;;;;11.95;4.10;;;;;;;2.49;100.00;97742.53;5007447;28;20028;-70
2023/01/17 12:34:03;;;;;;;12.77;4.90;;;;;;;2.36;100.00;97732.06;5009143;28;20029;-70
2023/01/17 12:36:29;;;;;;;8.25;4.65;;;;;;;2.36;100.00;97734.66;5050180;28;20032;-70
2023/01/17 12:38:55;;;;;;;16.85;5.88;;;;;;;2.28;100.00;97728.25;5046195;28;20028;-70
2023/01/17 12:41:25;;;;;;;12.10;4.88;;;;;;;2.23;100.00;97725.13;5043395;28;20119;-70
2023/01/17 12:43:58;;;;;;;10.02;5.07;;;;;;;2.19;100.00;97724.47;5026200;28;20029;-70
2023/01/17 12:46:30;;;;;;;13.00;6.03;;;;;;;2.23;100.00;97717.34;5016755;28;20036;-70
2023/01/17 12:49:02;;;;;;;12.05;5.90;;;;;;;2.03;100.00;97698.63;5049334;28;20025;-70
2023/01/17 12:51:35;;;;;;;14.30;6.25;;;;;;;2.18;100.00;97721.97;5048681;28;20048;-70
2023/01/17 12:54:15;;;;;;;13.65;6.28;;;;;;;2.19;100.00;97724.47;5025442;28;20028;-70